createdAt,value
2023-03-17T00:00:10.087Z,0.00
2023-03-17T00:01:10.069Z,0.00
2023-03-17T00:02:10.140Z,0.00
2023-03-17T00:03:10.056Z,0.00
2023-03-17T00:04:10.053Z,0.00
2023-03-17T00:05:10.035Z,0.00
2023-03-17T00:06:11.036Z,0.00
2023-03-17T00:07:10.071Z,0.00
2023-03-17T00:08:10.021Z,0.00
2023-03-17T00:09:10.022Z,0.00
2023-03-17T00:10:10.003Z,0.00
2023-03-17T00:11:10.004Z,0.00
2023-03-17T00:12:10.021Z,0.00
2023-03-17T00:13:10.040Z,0.00
2023-03-17T00:14:09.995Z,0.00
2023-03-17T00:15:09.972Z,0.00
2023-03-17T00:16:10.091Z,0.00
2023-03-17T00:17:10.040Z,0.00
2023-03-17T00:18:09.992Z,0.00
2023-03-17T00:19:10.012Z,0.00
2023-03-17T00:20:10.103Z,0.00
2023-03-17T00:21:09.942Z,0.00
2023-03-17T00:22:09.993Z,0.00
2023-03-17T00:23:09.988Z,0.00
2023-03-17T00:24:09.940Z,0.00
2023-03-17T00:25:09.924Z,0.00
2023-03-17T00:26:09.966Z,0.00
2023-03-17T00:27:10.010Z,0.00
2023-03-17T00:28:10.641Z,0.00
2023-03-17T00:29:10.645Z,0.00
2023-03-17T00:30:09.973Z,0.00
2023-03-17T00:31:10.093Z,0.00
2023-03-17T00:32:09.940Z,0.00
2023-03-17T00:33:10.583Z,0.00
2023-03-17T00:34:09.981Z,0.00
2023-03-17T00:35:09.941Z,0.00
2023-03-17T00:36:10.620Z,0.00
2023-03-17T00:37:09.865Z,0.00
2023-03-17T00:38:10.625Z,0.00
2023-03-17T00:39:09.891Z,0.00
2023-03-17T00:40:10.602Z,0.00
2023-03-17T00:41:10.779Z,0.00
2023-03-17T00:42:09.774Z,0.00
2023-03-17T00:43:09.809Z,0.00
2023-03-17T00:44:09.776Z,0.00
2023-03-17T00:45:09.750Z,0.00
2023-03-17T00:46:09.769Z,0.00
2023-03-17T00:47:09.738Z,0.00
2023-03-17T00:48:09.759Z,0.00
2023-03-17T00:49:09.724Z,0.00
2023-03-17T00:50:09.714Z,0.00
2023-03-17T00:51:09.706Z,0.00
2023-03-17T00:52:09.717Z,0.00
2023-03-17T00:53:09.723Z,0.00
2023-03-17T00:54:09.708Z,0.00
2023-03-17T00:55:09.673Z,0.00
2023-03-17T00:56:09.676Z,0.00
2023-03-17T00:57:09.666Z,0.00
2023-03-17T00:58:09.690Z,0.00
2023-03-17T00:59:09.649Z,0.00
2023-03-17T01:00:09.652Z,0.00
2023-03-17T01:01:09.683Z,0.00
2023-03-17T01:02:09.725Z,0.00
2023-03-17T01:03:09.646Z,0.00
2023-03-17T01:04:09.619Z,0.00
2023-03-17T01:05:09.612Z,0.00
2023-03-17T01:06:09.608Z,0.00
2023-03-17T01:07:09.599Z,0.00
2023-03-17T01:08:09.616Z,0.00
2023-03-17T01:09:09.581Z,0.00
2023-03-17T01:10:09.592Z,0.00
2023-03-17T01:11:09.571Z,0.00
2023-03-17T01:12:09.583Z,0.00
2023-03-17T01:13:09.584Z,0.00
2023-03-17T01:14:09.544Z,0.00
2023-03-17T01:15:09.568Z,0.00
2023-03-17T01:16:09.577Z,0.00
2023-03-17T01:17:09.573Z,0.00
2023-03-17T01:18:09.535Z,0.00
2023-03-17T01:19:09.501Z,0.00
2023-03-17T01:20:10.514Z,0.00
2023-03-17T01:21:09.508Z,0.00
2023-03-17T01:22:09.521Z,0.00
2023-03-17T01:23:09.969Z,0.00
2023-03-17T01:24:09.508Z,0.00
2023-03-17T01:25:09.488Z,0.00
2023-03-17T01:26:09.482Z,0.00
2023-03-17T01:27:09.467Z,0.00
2023-03-17T01:28:09.481Z,0.00
2023-03-17T01:29:09.460Z,0.00
2023-03-17T01:30:09.457Z,0.00
2023-03-17T01:31:09.606Z,0.00
2023-03-17T01:32:09.445Z,0.00
2023-03-17T01:33:09.485Z,0.00
2023-03-17T01:34:09.448Z,0.00
2023-03-17T01:35:09.510Z,0.00
2023-03-17T01:36:09.431Z,0.00
2023-03-17T01:37:09.417Z,0.00
2023-03-17T01:38:09.416Z,0.00
2023-03-17T01:39:09.428Z,0.00
2023-03-17T01:40:09.381Z,0.00
2023-03-17T01:41:09.463Z,0.00
2023-03-17T01:42:09.356Z,0.00
2023-03-17T01:43:09.366Z,0.00
2023-03-17T01:44:09.351Z,0.00
2023-03-17T01:45:09.336Z,0.00
2023-03-17T01:46:09.390Z,0.00
2023-03-17T01:47:09.322Z,0.00
2023-03-17T01:48:09.342Z,0.00
2023-03-17T01:49:09.348Z,0.00
2023-03-17T01:50:09.318Z,0.00
2023-03-17T01:51:09.295Z,0.00
2023-03-17T01:52:09.318Z,0.00
2023-03-17T01:53:09.301Z,0.00
2023-03-17T01:54:09.311Z,0.00
2023-03-17T01:55:09.267Z,0.00
2023-03-17T01:56:09.251Z,0.00
2023-03-17T01:57:09.286Z,0.00
2023-03-17T01:58:09.272Z,0.00
2023-03-17T01:59:09.243Z,0.00
2023-03-17T02:00:09.235Z,0.00
2023-03-17T02:01:09.256Z,0.00
2023-03-17T02:02:09.224Z,0.00
2023-03-17T02:03:09.243Z,0.00
2023-03-17T02:04:09.234Z,0.00
2023-03-17T02:05:09.205Z,0.00
2023-03-17T02:06:09.187Z,0.00
2023-03-17T02:07:09.192Z,0.00
2023-03-17T02:08:09.206Z,0.00
2023-03-17T02:09:09.194Z,0.00
2023-03-17T02:10:09.168Z,0.00
2023-03-17T02:11:09.153Z,0.00
2023-03-17T02:12:09.155Z,0.00
2023-03-17T02:13:09.166Z,0.00
2023-03-17T02:14:09.137Z,0.00
2023-03-17T02:15:09.126Z,0.00
2023-03-17T02:16:09.107Z,0.00
2023-03-17T02:17:09.113Z,0.00
2023-03-17T02:18:09.137Z,0.00
2023-03-17T02:19:09.100Z,0.00
2023-03-17T02:20:09.085Z,0.00
2023-03-17T02:21:09.082Z,0.00
2023-03-17T02:22:09.071Z,0.00
2023-03-17T02:23:09.080Z,0.00
2023-03-17T02:24:09.065Z,0.00
2023-03-17T02:25:09.063Z,0.00
2023-03-17T02:26:09.047Z,0.00
2023-03-17T02:27:09.033Z,0.00
2023-03-17T02:28:09.048Z,0.00
2023-03-17T02:29:09.035Z,0.00
2023-03-17T02:30:09.025Z,0.00
2023-03-17T02:31:09.048Z,0.00
2023-03-17T02:32:09.004Z,0.00
2023-03-17T02:33:09.056Z,0.00
2023-03-17T02:34:08.990Z,0.00
2023-03-17T02:35:08.974Z,0.00
2023-03-17T02:36:09.115Z,0.00
2023-03-17T02:37:08.963Z,0.00
2023-03-17T02:38:08.996Z,0.00
2023-03-17T02:39:08.957Z,0.00
2023-03-17T02:40:08.933Z,0.00
2023-03-17T02:41:10.009Z,0.00
2023-03-17T02:42:08.945Z,0.00
2023-03-17T02:43:08.944Z,0.00
2023-03-17T02:44:08.925Z,0.00
2023-03-17T02:45:08.938Z,0.00
2023-03-17T02:46:09.008Z,0.00
2023-03-17T02:47:08.896Z,0.00
2023-03-17T02:48:08.946Z,0.00
2023-03-17T02:49:08.889Z,0.00
2023-03-17T02:50:08.884Z,0.00
2023-03-17T02:51:08.982Z,0.00
2023-03-17T02:52:08.873Z,0.00
2023-03-17T02:53:09.377Z,0.00
2023-03-17T02:54:08.902Z,0.00
2023-03-17T02:55:08.871Z,0.00
2023-03-17T02:56:08.837Z,0.00
2023-03-17T02:57:08.966Z,0.00
2023-03-17T02:58:08.893Z,0.00
2023-03-17T02:59:08.861Z,0.00
2023-03-17T03:00:08.947Z,0.00
2023-03-17T03:01:08.829Z,0.00
2023-03-17T03:02:08.951Z,0.00
2023-03-17T03:03:08.891Z,0.00
2023-03-17T03:04:08.925Z,0.00
2023-03-17T03:05:08.872Z,0.00
2023-03-17T03:06:08.894Z,0.00
2023-03-17T03:07:08.890Z,0.00
2023-03-17T03:08:08.889Z,0.00
2023-03-17T03:09:08.871Z,0.00
2023-03-17T03:10:08.899Z,0.00
2023-03-17T03:11:08.892Z,0.00
2023-03-17T03:12:09.758Z,0.00
2023-03-17T03:13:08.926Z,0.00
2023-03-17T03:14:08.827Z,0.00
2023-03-17T03:15:08.819Z,0.00
2023-03-17T03:16:08.833Z,0.00
2023-03-17T03:17:08.860Z,0.00
2023-03-17T03:18:09.013Z,0.00
2023-03-17T03:19:08.729Z,0.00
2023-03-17T03:20:08.675Z,0.00
2023-03-17T03:21:08.663Z,0.00
2023-03-17T03:22:08.810Z,0.00
2023-03-17T03:23:08.675Z,0.00
2023-03-17T03:24:08.661Z,0.00
2023-03-17T03:25:08.672Z,0.00
2023-03-17T03:26:08.639Z,0.00
2023-03-17T03:27:08.627Z,0.00
2023-03-17T03:28:08.627Z,0.00
2023-03-17T03:29:08.641Z,0.00
2023-03-17T03:30:08.624Z,0.00
2023-03-17T03:31:08.649Z,0.00
2023-03-17T03:32:08.593Z,0.00
2023-03-17T03:33:08.593Z,0.00
2023-03-17T03:34:08.604Z,0.00
2023-03-17T03:35:08.587Z,0.00
2023-03-17T03:36:08.594Z,0.00
2023-03-17T03:37:08.563Z,0.00
2023-03-17T03:38:08.559Z,0.00
2023-03-17T03:39:08.623Z,0.00
2023-03-17T03:40:08.607Z,0.00
2023-03-17T03:41:08.539Z,0.00
2023-03-17T03:42:08.537Z,0.00
2023-03-17T03:43:22.066Z,0.00
2023-03-17T03:44:10.523Z,0.00
2023-03-17T03:45:08.504Z,0.00
2023-03-17T03:46:08.576Z,0.00
2023-03-17T03:47:08.484Z,0.00
2023-03-17T03:48:08.501Z,0.00
2023-03-17T03:49:08.500Z,0.00
2023-03-17T03:50:08.466Z,0.00
2023-03-17T03:51:08.462Z,0.00
2023-03-17T03:52:08.454Z,0.00
2023-03-17T03:53:08.444Z,0.00
2023-03-17T03:54:08.452Z,0.00
2023-03-17T03:55:08.434Z,0.00
2023-03-17T03:56:08.437Z,0.00
2023-03-17T03:57:08.412Z,0.00
2023-03-17T03:58:08.410Z,0.00
2023-03-17T03:59:08.414Z,0.00
2023-03-17T04:00:08.397Z,0.00
2023-03-17T04:01:08.426Z,0.00
2023-03-17T04:02:09.572Z,0.00
2023-03-17T04:03:09.420Z,0.00
2023-03-17T04:04:08.384Z,0.00
2023-03-17T04:05:08.363Z,0.00
2023-03-17T04:06:08.366Z,0.00
2023-03-17T04:07:08.337Z,0.00
2023-03-17T04:08:08.329Z,0.00
2023-03-17T04:09:08.339Z,0.00
2023-03-17T04:10:08.330Z,0.00
2023-03-17T04:11:08.315Z,0.00
2023-03-17T04:12:08.300Z,0.00
2023-03-17T04:13:08.298Z,0.00
2023-03-17T04:14:08.366Z,0.00
2023-03-17T04:15:08.327Z,0.00
2023-03-17T04:16:08.330Z,0.00
2023-03-17T04:17:08.268Z,0.00
2023-03-17T04:18:08.278Z,0.00
2023-03-17T04:19:08.381Z,0.00
2023-03-17T04:20:08.278Z,0.00
2023-03-17T04:21:08.290Z,0.00
2023-03-17T04:22:08.427Z,0.00
2023-03-17T04:23:08.248Z,0.00
2023-03-17T04:24:08.315Z,0.00
2023-03-17T04:25:08.242Z,0.00
2023-03-17T04:26:08.261Z,0.00
2023-03-17T04:27:08.284Z,0.00
2023-03-17T04:28:08.298Z,0.00
2023-03-17T04:29:08.265Z,0.00
2023-03-17T04:30:08.188Z,0.00
2023-03-17T04:31:08.284Z,0.00
2023-03-17T04:32:08.197Z,0.00
2023-03-17T04:33:08.345Z,0.00
2023-03-17T04:34:08.287Z,0.00
2023-03-17T04:35:08.173Z,0.00
2023-03-17T04:36:08.264Z,0.00
2023-03-17T04:37:08.167Z,0.00
2023-03-17T04:38:08.165Z,0.00
2023-03-17T04:39:08.156Z,0.00
2023-03-17T04:40:08.175Z,0.00
2023-03-17T04:41:08.113Z,0.00
2023-03-17T04:42:08.114Z,0.00
2023-03-17T04:43:08.155Z,0.00
2023-03-17T04:44:08.201Z,0.00
2023-03-17T04:45:08.169Z,0.00
2023-03-17T04:46:08.142Z,0.00
2023-03-17T04:47:08.063Z,0.00
2023-03-17T04:48:08.064Z,0.00
2023-03-17T04:49:08.066Z,0.00
2023-03-17T04:50:08.057Z,0.00
2023-03-17T04:51:10.419Z,0.00
2023-03-17T04:52:08.039Z,0.00
2023-03-17T04:53:08.033Z,0.00
2023-03-17T04:54:08.067Z,0.00
2023-03-17T04:55:08.017Z,0.00
2023-03-17T04:56:08.037Z,0.00
2023-03-17T04:57:08.019Z,0.00
2023-03-17T04:58:09.230Z,0.00
2023-03-17T04:59:08.026Z,0.00
2023-03-17T05:00:08.000Z,0.00
2023-03-17T05:01:08.062Z,0.00
2023-03-17T05:02:08.089Z,0.00
2023-03-17T05:03:20.170Z,0.00
2023-03-17T05:04:12.723Z,0.00
2023-03-17T05:05:08.987Z,0.00
2023-03-17T05:06:07.953Z,0.00
2023-03-17T05:07:07.960Z,0.00
2023-03-17T05:08:07.937Z,0.00
2023-03-17T05:09:07.962Z,0.00
2023-03-17T05:10:07.949Z,0.00
2023-03-17T05:11:07.915Z,0.00
2023-03-17T05:12:07.909Z,0.00
2023-03-17T05:13:07.912Z,0.00
2023-03-17T05:14:07.939Z,0.00
2023-03-17T05:15:07.916Z,0.00
2023-03-17T05:16:07.929Z,0.00
2023-03-17T05:17:07.894Z,0.00
2023-03-17T05:18:07.862Z,0.00
2023-03-17T05:19:07.885Z,0.00
2023-03-17T05:20:08.446Z,0.00
2023-03-17T05:21:07.841Z,0.00
2023-03-17T05:22:07.849Z,0.00
2023-03-17T05:23:07.833Z,0.00
2023-03-17T05:24:07.844Z,0.00
2023-03-17T05:25:07.844Z,0.00
2023-03-17T05:26:07.813Z,0.00
2023-03-17T05:27:07.815Z,0.00
2023-03-17T05:28:07.807Z,0.00
2023-03-17T05:29:07.806Z,0.00
2023-03-17T05:30:07.812Z,0.00
2023-03-17T05:31:10.735Z,0.00
2023-03-17T05:32:08.835Z,0.00
2023-03-17T05:33:07.787Z,0.00
2023-03-17T05:34:07.774Z,5.62
2023-03-17T05:35:07.743Z,5.62
2023-03-17T05:36:07.759Z,5.62
2023-03-17T05:37:07.747Z,5.62
2023-03-17T05:38:07.730Z,5.62
2023-03-17T05:39:07.754Z,5.62
2023-03-17T05:40:07.716Z,5.62
2023-03-17T05:41:07.708Z,5.62
2023-03-17T05:42:07.699Z,11.25
2023-03-17T05:43:07.698Z,11.25
2023-03-17T05:44:07.714Z,11.25
2023-03-17T05:45:07.693Z,11.25
2023-03-17T05:46:07.695Z,11.25
2023-03-17T05:47:07.668Z,16.88
2023-03-17T05:48:07.673Z,16.88
2023-03-17T05:49:07.698Z,16.88
2023-03-17T05:50:07.656Z,16.88
2023-03-17T05:51:07.693Z,22.50
2023-03-17T05:52:07.652Z,22.50
2023-03-17T05:53:07.623Z,22.50
2023-03-17T05:54:07.656Z,28.12
2023-03-17T05:55:07.614Z,28.12
2023-03-17T05:56:07.602Z,33.75
2023-03-17T05:57:07.604Z,33.75
2023-03-17T05:58:07.611Z,39.38
2023-03-17T05:59:07.617Z,39.38
2023-03-17T06:00:07.577Z,39.38
2023-03-17T06:01:07.579Z,39.38
2023-03-17T06:02:07.580Z,45.00
2023-03-17T06:03:07.621Z,45.00
2023-03-17T06:04:07.558Z,45.00
2023-03-17T06:05:07.562Z,45.00
2023-03-17T06:06:07.543Z,45.00
2023-03-17T06:07:07.527Z,50.62
2023-03-17T06:08:07.528Z,50.62
2023-03-17T06:09:07.516Z,50.62
2023-03-17T06:10:07.532Z,50.62
2023-03-17T06:11:07.509Z,50.62
2023-03-17T06:12:07.498Z,50.62
2023-03-17T06:13:07.492Z,50.62
2023-03-17T06:14:07.565Z,56.25
2023-03-17T06:15:07.503Z,61.88
2023-03-17T06:16:07.512Z,61.88
2023-03-17T06:17:07.463Z,61.88
2023-03-17T06:18:07.463Z,61.88
2023-03-17T06:19:07.444Z,61.88
2023-03-17T06:20:07.477Z,61.88
2023-03-17T06:21:07.434Z,67.50
2023-03-17T06:22:07.453Z,67.50
2023-03-17T06:23:07.439Z,67.50
2023-03-17T06:24:07.473Z,67.50
2023-03-17T06:25:07.428Z,67.50
2023-03-17T06:26:07.408Z,67.50
2023-03-17T06:27:07.400Z,73.12
2023-03-17T06:28:07.386Z,67.50
2023-03-17T06:29:07.381Z,67.50
2023-03-17T06:30:07.420Z,73.12
2023-03-17T06:31:07.628Z,73.12
2023-03-17T06:32:19.752Z,78.75
2023-03-17T06:33:09.462Z,78.75
2023-03-17T06:34:07.350Z,78.75
2023-03-17T06:35:07.361Z,78.75
2023-03-17T06:36:07.385Z,78.75
2023-03-17T06:37:07.317Z,84.38
2023-03-17T06:38:08.314Z,84.38
2023-03-17T06:39:07.304Z,84.38
2023-03-17T06:40:07.317Z,84.38
2023-03-17T06:41:07.315Z,90.00
2023-03-17T06:42:07.283Z,84.38
2023-03-17T06:43:07.282Z,84.38
2023-03-17T06:44:07.286Z,84.38
2023-03-17T06:45:07.273Z,84.38
2023-03-17T06:46:07.299Z,90.00
2023-03-17T06:47:07.254Z,95.62
2023-03-17T06:48:07.237Z,84.38
2023-03-17T06:49:07.227Z,84.38
2023-03-17T06:50:07.240Z,90.00
2023-03-17T06:51:07.230Z,90.00
2023-03-17T06:52:07.210Z,84.38
2023-03-17T06:53:07.200Z,84.38
2023-03-17T06:54:07.208Z,84.38
2023-03-17T06:55:07.218Z,84.38
2023-03-17T06:56:09.508Z,90.00
2023-03-17T06:57:08.165Z,90.00
2023-03-17T06:58:07.162Z,95.62
2023-03-17T06:59:07.151Z,95.62
2023-03-17T07:00:07.176Z,95.62
2023-03-17T07:01:07.145Z,101.25
2023-03-17T07:02:07.257Z,101.25
2023-03-17T07:03:07.126Z,106.88
2023-03-17T07:04:07.161Z,112.50
2023-03-17T07:05:07.126Z,112.50
2023-03-17T07:06:07.115Z,118.12
2023-03-17T07:07:07.110Z,118.12
2023-03-17T07:08:07.091Z,112.50
2023-03-17T07:09:07.090Z,123.75
2023-03-17T07:10:07.101Z,123.75
2023-03-17T07:11:07.084Z,123.75
2023-03-17T07:12:07.082Z,118.12
2023-03-17T07:13:07.058Z,118.12
2023-03-17T07:14:07.059Z,123.75
2023-03-17T07:15:07.078Z,129.38
2023-03-17T07:16:07.093Z,129.38
2023-03-17T07:17:07.043Z,140.62
2023-03-17T07:18:07.045Z,140.62
2023-03-17T07:19:07.005Z,140.62
2023-03-17T07:20:07.029Z,146.25
2023-03-17T07:21:06.998Z,146.25
2023-03-17T07:22:06.996Z,146.25
2023-03-17T07:23:07.012Z,146.25
2023-03-17T07:24:07.009Z,140.62
2023-03-17T07:25:07.044Z,146.25
2023-03-17T07:26:06.961Z,140.62
2023-03-17T07:27:06.978Z,140.62
2023-03-17T07:28:06.942Z,140.62
2023-03-17T07:29:06.947Z,140.62
2023-03-17T07:30:06.965Z,140.62
2023-03-17T07:31:06.988Z,129.38
2023-03-17T07:32:06.912Z,129.38
2023-03-17T07:33:06.992Z,135.00
2023-03-17T07:34:06.896Z,135.00
2023-03-17T07:35:06.944Z,135.00
2023-03-17T07:36:06.977Z,135.00
2023-03-17T07:37:06.952Z,135.00
2023-03-17T07:38:06.883Z,135.00
2023-03-17T07:39:06.883Z,135.00
2023-03-17T07:40:06.911Z,135.00
2023-03-17T07:41:06.893Z,135.00
2023-03-17T07:42:06.855Z,135.00
2023-03-17T07:43:06.863Z,135.00
2023-03-17T07:44:06.848Z,135.00
2023-03-17T07:45:06.833Z,135.00
2023-03-17T07:46:06.961Z,135.00
2023-03-17T07:47:06.827Z,135.00
2023-03-17T07:48:06.808Z,135.00
2023-03-17T07:49:06.812Z,135.00
2023-03-17T07:50:06.814Z,135.00
2023-03-17T07:51:06.778Z,140.62
2023-03-17T07:52:06.773Z,140.62
2023-03-17T07:53:06.765Z,140.62
2023-03-17T07:54:06.750Z,140.62
2023-03-17T07:55:06.803Z,140.62
2023-03-17T07:56:06.741Z,140.62
2023-03-17T07:57:06.773Z,140.62
2023-03-17T07:58:06.785Z,140.62
2023-03-17T07:59:06.705Z,146.25
2023-03-17T08:00:06.707Z,146.25
2023-03-17T08:01:06.722Z,146.25
2023-03-17T08:02:06.902Z,146.25
2023-03-17T08:03:10.716Z,146.25
2023-03-17T08:04:07.750Z,146.25
2023-03-17T08:05:06.676Z,146.25
2023-03-17T08:06:06.684Z,146.25
2023-03-17T08:07:06.675Z,135.00
2023-03-17T08:08:06.775Z,146.25
2023-03-17T08:09:06.652Z,146.25
2023-03-17T08:10:06.655Z,146.25
2023-03-17T08:11:06.620Z,151.88
2023-03-17T08:12:06.661Z,151.88
2023-03-17T08:13:06.642Z,151.88
2023-03-17T08:14:06.670Z,157.50
2023-03-17T08:15:06.721Z,163.12
2023-03-17T08:16:06.713Z,157.50
2023-03-17T08:17:06.696Z,163.12
2023-03-17T08:18:06.578Z,163.12
2023-03-17T08:19:06.604Z,168.75
2023-03-17T08:20:06.623Z,168.75
2023-03-17T08:21:06.585Z,174.38
2023-03-17T08:22:06.562Z,163.12
2023-03-17T08:23:06.609Z,174.38
2023-03-17T08:24:06.577Z,163.12
2023-03-17T08:25:06.560Z,180.00
2023-03-17T08:26:06.561Z,180.00
2023-03-17T08:27:06.524Z,168.75
2023-03-17T08:28:06.558Z,180.00
2023-03-17T08:29:06.503Z,185.62
2023-03-17T08:30:06.606Z,191.25
2023-03-17T08:31:06.548Z,191.25
2023-03-17T08:32:06.579Z,196.88
2023-03-17T08:33:06.533Z,196.88
2023-03-17T08:34:06.487Z,202.50
2023-03-17T08:35:06.532Z,196.88
2023-03-17T08:36:06.474Z,202.50
2023-03-17T08:37:06.450Z,202.50
2023-03-17T08:38:06.456Z,202.50
2023-03-17T08:39:06.448Z,196.88
2023-03-17T08:40:06.469Z,185.62
2023-03-17T08:41:06.429Z,191.25
2023-03-17T08:42:06.434Z,196.88
2023-03-17T08:43:06.416Z,196.88
2023-03-17T08:44:06.418Z,196.88
2023-03-17T08:45:06.451Z,185.62
2023-03-17T08:46:06.420Z,185.62
2023-03-17T08:47:06.387Z,185.62
2023-03-17T08:48:06.393Z,196.88
2023-03-17T08:49:06.386Z,202.50
2023-03-17T08:50:06.365Z,202.50
2023-03-17T08:51:06.375Z,208.12
2023-03-17T08:52:06.353Z,208.12
2023-03-17T08:53:06.376Z,208.12
2023-03-17T08:54:06.346Z,208.12
2023-03-17T08:55:06.354Z,202.50
2023-03-17T08:56:06.326Z,208.12
2023-03-17T08:57:06.351Z,213.75
2023-03-17T08:58:06.325Z,213.75
2023-03-17T08:59:06.300Z,213.75
2023-03-17T09:00:06.305Z,213.75
2023-03-17T09:01:06.304Z,219.38
2023-03-17T09:02:06.307Z,225.00
2023-03-17T09:03:06.288Z,225.00
2023-03-17T09:04:06.272Z,225.00
2023-03-17T09:05:06.259Z,219.38
2023-03-17T09:06:06.293Z,225.00
2023-03-17T09:07:08.406Z,219.38
2023-03-17T09:08:07.292Z,219.38
2023-03-17T09:09:06.242Z,225.00
2023-03-17T09:10:06.241Z,225.00
2023-03-17T09:11:06.219Z,225.00
2023-03-17T09:12:06.353Z,236.25
2023-03-17T09:13:06.216Z,225.00
2023-03-17T09:14:06.197Z,236.25
2023-03-17T09:15:06.192Z,236.25
2023-03-17T09:16:06.228Z,236.25
2023-03-17T09:17:06.209Z,230.62
2023-03-17T09:18:06.200Z,230.62
2023-03-17T09:19:06.166Z,219.38
2023-03-17T09:20:06.161Z,219.38
2023-03-17T09:21:06.168Z,225.00
2023-03-17T09:22:06.143Z,230.62
2023-03-17T09:23:06.139Z,225.00
2023-03-17T09:24:06.125Z,225.00
2023-03-17T09:25:06.115Z,219.38
2023-03-17T09:26:06.125Z,202.50
2023-03-17T09:27:06.178Z,185.62
2023-03-17T09:28:06.108Z,196.88
2023-03-17T09:29:06.102Z,196.88
2023-03-17T09:30:06.123Z,196.88
2023-03-17T09:31:06.151Z,196.88
2023-03-17T09:32:06.069Z,180.00
2023-03-17T09:33:06.138Z,174.38
2023-03-17T09:34:06.060Z,191.25
2023-03-17T09:35:06.063Z,202.50
2023-03-17T09:36:06.156Z,208.12
2023-03-17T09:37:06.047Z,196.88
2023-03-17T09:38:06.028Z,191.25
2023-03-17T09:39:06.023Z,208.12
2023-03-17T09:40:06.017Z,208.12
2023-03-17T09:41:06.030Z,196.88
2023-03-17T09:42:06.010Z,208.12
2023-03-17T09:43:05.994Z,219.38
2023-03-17T09:44:05.992Z,230.62
2023-03-17T09:45:05.971Z,236.25
2023-03-17T09:46:06.038Z,241.88
2023-03-17T09:47:05.962Z,258.75
2023-03-17T09:48:05.961Z,236.25
2023-03-17T09:49:05.964Z,247.50
2023-03-17T09:50:05.945Z,247.50
2023-03-17T09:51:05.954Z,241.88
2023-03-17T09:52:05.939Z,253.12
2023-03-17T09:53:05.940Z,270.00
2023-03-17T09:54:05.922Z,270.00
2023-03-17T09:55:05.908Z,270.00
2023-03-17T09:56:05.970Z,270.00
2023-03-17T09:57:05.898Z,270.00
2023-03-17T09:58:05.911Z,270.00
2023-03-17T09:59:05.895Z,270.00
2023-03-17T10:00:05.870Z,275.62
2023-03-17T10:01:05.895Z,258.75
2023-03-17T10:02:05.955Z,258.75
2023-03-17T10:03:05.849Z,253.12
2023-03-17T10:04:05.854Z,247.50
2023-03-17T10:05:05.894Z,241.88
2023-03-17T10:06:05.856Z,247.50
2023-03-17T10:07:05.832Z,247.50
2023-03-17T10:08:09.093Z,247.50
2023-03-17T10:09:06.814Z,253.12
2023-03-17T10:10:05.810Z,253.12
2023-03-17T10:11:05.826Z,264.38
2023-03-17T10:12:05.802Z,258.75
2023-03-17T10:13:05.786Z,258.75
2023-03-17T10:14:05.799Z,264.38
2023-03-17T10:15:05.762Z,258.75
2023-03-17T10:16:06.801Z,264.38
2023-03-17T10:17:05.780Z,275.62
2023-03-17T10:18:05.753Z,270.00
2023-03-17T10:19:05.749Z,281.25
2023-03-17T10:20:05.747Z,281.25
2023-03-17T10:21:05.768Z,281.25
2023-03-17T10:22:05.728Z,286.88
2023-03-17T10:23:05.728Z,286.88
2023-03-17T10:24:05.716Z,286.88
2023-03-17T10:25:05.713Z,286.88
2023-03-17T10:26:06.077Z,286.88
2023-03-17T10:27:05.697Z,292.50
2023-03-17T10:28:08.759Z,286.88
2023-03-17T10:29:06.701Z,281.25
2023-03-17T10:30:05.684Z,270.00
2023-03-17T10:31:05.822Z,275.62
2023-03-17T10:32:05.670Z,281.25
2023-03-17T10:33:05.713Z,286.88
2023-03-17T10:34:05.663Z,281.25
2023-03-17T10:35:05.639Z,275.62
2023-03-17T10:36:05.669Z,286.88
2023-03-17T10:37:05.657Z,275.62
2023-03-17T10:38:14.348Z,281.25
2023-03-17T10:39:07.605Z,275.62
2023-03-17T10:40:05.606Z,281.25
2023-03-17T10:41:05.625Z,281.25
2023-03-17T10:42:05.586Z,281.25
2023-03-17T10:43:05.580Z,275.62
2023-03-17T10:44:05.570Z,275.62
2023-03-17T10:45:05.580Z,286.88
2023-03-17T10:46:05.640Z,286.88
2023-03-17T10:47:05.681Z,286.88
2023-03-17T10:48:05.567Z,292.50
2023-03-17T10:49:05.567Z,292.50
2023-03-17T10:50:05.660Z,286.88
2023-03-17T10:51:05.576Z,286.88
2023-03-17T10:52:05.549Z,286.88
2023-03-17T10:53:05.525Z,286.88
2023-03-17T10:54:06.512Z,286.88
2023-03-17T10:55:05.542Z,292.50
2023-03-17T10:56:05.527Z,298.12
2023-03-17T10:57:05.491Z,292.50
2023-03-17T10:58:05.486Z,298.12
2023-03-17T10:59:05.481Z,298.12
2023-03-17T11:00:05.481Z,303.75
2023-03-17T11:01:05.521Z,303.75
2023-03-17T11:02:05.476Z,309.38
2023-03-17T11:03:05.449Z,315.00
2023-03-17T11:04:05.482Z,315.00
2023-03-17T11:05:05.442Z,320.62
2023-03-17T11:06:05.467Z,320.62
2023-03-17T11:07:05.428Z,331.88
2023-03-17T11:08:05.410Z,331.88
2023-03-17T11:09:05.410Z,331.88
2023-03-17T11:10:05.404Z,326.25
2023-03-17T11:11:05.437Z,326.25
2023-03-17T11:12:05.380Z,320.62
2023-03-17T11:13:05.390Z,326.25
2023-03-17T11:14:05.369Z,326.25
2023-03-17T11:15:05.372Z,331.88
2023-03-17T11:16:05.398Z,326.25
2023-03-17T11:17:05.359Z,326.25
2023-03-17T11:18:05.351Z,315.00
2023-03-17T11:19:05.346Z,320.62
2023-03-17T11:20:05.384Z,320.62
2023-03-17T11:21:05.347Z,326.25
2023-03-17T11:22:05.326Z,326.25
2023-03-17T11:23:05.308Z,331.88
2023-03-17T11:24:05.308Z,331.88
2023-03-17T11:25:05.339Z,326.25
2023-03-17T11:26:05.338Z,331.88
2023-03-17T11:27:05.292Z,331.88
2023-03-17T11:28:05.283Z,326.25
2023-03-17T11:29:05.317Z,337.50
2023-03-17T11:30:05.271Z,326.25
2023-03-17T11:31:05.269Z,326.25
2023-03-17T11:32:05.309Z,326.25
2023-03-17T11:33:05.304Z,320.62
2023-03-17T11:34:05.310Z,320.62
2023-03-17T11:35:05.241Z,320.62
2023-03-17T11:36:05.293Z,320.62
2023-03-17T11:37:05.243Z,320.62
2023-03-17T11:38:05.242Z,320.62
2023-03-17T11:39:05.217Z,320.62
2023-03-17T11:40:05.232Z,320.62
2023-03-17T11:41:05.230Z,326.25
2023-03-17T11:42:05.201Z,326.25
2023-03-17T11:43:05.177Z,326.25
2023-03-17T11:44:05.193Z,326.25
2023-03-17T11:45:05.159Z,326.25
2023-03-17T11:46:05.245Z,331.88
2023-03-17T11:47:05.146Z,331.88
2023-03-17T11:48:05.255Z,331.88
2023-03-17T11:49:05.168Z,331.88
2023-03-17T11:50:05.150Z,331.88
2023-03-17T11:51:05.140Z,337.50
2023-03-17T11:52:05.122Z,326.25
2023-03-17T11:53:05.138Z,320.62
2023-03-17T11:54:05.108Z,315.00
2023-03-17T11:55:05.110Z,315.00
2023-03-17T11:56:05.118Z,309.38
2023-03-17T11:57:05.068Z,309.38
2023-03-17T11:58:05.076Z,303.75
2023-03-17T11:59:05.081Z,303.75
2023-03-17T12:00:05.073Z,303.75
2023-03-17T12:01:05.072Z,303.75
2023-03-17T12:02:05.041Z,298.12
2023-03-17T12:03:05.050Z,298.12
2023-03-17T12:04:05.129Z,298.12
2023-03-17T12:05:05.067Z,298.12
2023-03-17T12:06:05.015Z,298.12
2023-03-17T12:07:05.025Z,298.12
2023-03-17T12:08:05.000Z,292.50
2023-03-17T12:09:05.001Z,292.50
2023-03-17T12:10:05.010Z,286.88
2023-03-17T12:11:04.979Z,286.88
2023-03-17T12:12:05.014Z,281.25
2023-03-17T12:13:04.972Z,281.25
2023-03-17T12:14:04.979Z,286.88
2023-03-17T12:15:04.947Z,281.25
2023-03-17T12:16:04.974Z,275.62
2023-03-17T12:17:04.961Z,275.62
2023-03-17T12:18:04.960Z,275.62
2023-03-17T12:19:04.914Z,275.62
2023-03-17T12:20:04.935Z,270.00
2023-03-17T12:21:04.907Z,270.00
2023-03-17T12:22:04.909Z,270.00
2023-03-17T12:23:04.884Z,270.00
2023-03-17T12:24:04.876Z,270.00
2023-03-17T12:25:05.888Z,270.00
2023-03-17T12:26:04.974Z,270.00
2023-03-17T12:27:04.900Z,264.38
2023-03-17T12:28:04.907Z,264.38
2023-03-17T12:29:04.929Z,264.38
2023-03-17T12:30:04.837Z,258.75
2023-03-17T12:31:04.991Z,258.75
2023-03-17T12:32:04.945Z,253.12
2023-03-17T12:33:04.906Z,253.12
2023-03-17T12:34:04.862Z,247.50
2023-03-17T12:35:04.820Z,241.88
2023-03-17T12:36:04.819Z,241.88
2023-03-17T12:37:04.818Z,241.88
2023-03-17T12:38:04.800Z,236.25
2023-03-17T12:39:04.793Z,230.62
2023-03-17T12:40:04.777Z,230.62
2023-03-17T12:41:04.759Z,225.00
2023-03-17T12:42:04.775Z,225.00
2023-03-17T12:43:04.752Z,219.38
2023-03-17T12:44:04.779Z,213.75
2023-03-17T12:45:04.826Z,208.12
2023-03-17T12:46:04.782Z,202.50
2023-03-17T12:47:04.882Z,196.88
2023-03-17T12:48:04.724Z,185.62
2023-03-17T12:49:04.725Z,180.00
2023-03-17T12:50:04.714Z,174.38
2023-03-17T12:51:04.722Z,168.75
2023-03-17T12:52:04.724Z,163.12